sensor_id;sensor_type;location;lat;lon;timestamp;P1;durP1;ratioP1;P2;durP2;ratioP2
9712;SDS011;4895;50.926;6.870;2023-03-23T00:02:19;5.80;;;2.60;;
9712;SDS011;4895;50.926;6.870;2023-03-23T00:04:47;4.77;;;2.10;;
9712;SDS011;4895;50.926;6.870;2023-03-23T00:07:14;9.17;;;2.27;;
9712;SDS011;4895;50.926;6.870;2023-03-23T00:09:49;4.03;;;2.10;;
9712;SDS011;4895;50.926;6.870;2023-03-23T00:12:22;3.97;;;2.10;;
9712;SDS011;4895;50.926;6.870;2023-03-23T00:14:54;4.87;;;2.77;;
9712;SDS011;4895;50.926;6.870;2023-03-23T00:17:20;3.73;;;2.17;;
9712;SDS011;4895;50.926;6.870;2023-03-23T00:19:45;7.70;;;2.10;;
9712;SDS011;4895;50.926;6.870;2023-03-23T00:22:14;5.80;;;2.37;;
9712;SDS011;4895;50.926;6.870;2023-03-23T00:24:41;2.80;;;2.10;;
9712;SDS011;4895;50.926;6.870;2023-03-23T00:27:07;4.43;;;2.13;;
9712;SDS011;4895;50.926;6.870;2023-03-23T00:29:33;3.43;;;2.13;;
9712;SDS011;4895;50.926;6.870;2023-03-23T00:31:59;3.70;;;2.00;;
9712;SDS011;4895;50.926;6.870;2023-03-23T00:34:24;4.67;;;2.30;;
9712;SDS011;4895;50.926;6.870;2023-03-23T00:36:51;3.30;;;2.27;;
9712;SDS011;4895;50.926;6.870;2023-03-23T00:39:24;8.20;;;2.53;;
9712;SDS011;4895;50.926;6.870;2023-03-23T00:41:51;4.50;;;2.90;;
9712;SDS011;4895;50.926;6.870;2023-03-23T00:44:18;4.10;;;2.50;;
9712;SDS011;4895;50.926;6.870;2023-03-23T00:46:43;3.70;;;2.27;;
9712;SDS011;4895;50.926;6.870;2023-03-23T00:49:13;3.40;;;2.40;;
9712;SDS011;4895;50.926;6.870;2023-03-23T00:51:40;6.83;;;3.07;;
9712;SDS011;4895;50.926;6.870;2023-03-23T00:54:06;7.40;;;2.67;;
9712;SDS011;4895;50.926;6.870;2023-03-23T00:56:31;5.00;;;2.50;;
9712;SDS011;4895;50.926;6.870;2023-03-23T00:58:57;4.47;;;3.27;;
9712;SDS011;4895;50.926;6.870;2023-03-23T01:01:22;4.07;;;2.60;;
9712;SDS011;4895;50.926;6.870;2023-03-23T01:03:47;4.37;;;2.43;;
9712;SDS011;4895;50.926;6.870;2023-03-23T01:06:14;5.03;;;2.60;;
9712;SDS011;4895;50.926;6.870;2023-03-23T01:08:40;4.77;;;1.70;;
9712;SDS011;4895;50.926;6.870;2023-03-23T01:11:15;4.00;;;2.37;;
9712;SDS011;4895;50.926;6.870;2023-03-23T01:13:44;3.50;;;2.10;;
9712;SDS011;4895;50.926;6.870;2023-03-23T01:16:09;5.03;;;2.60;;
9712;SDS011;4895;50.926;6.870;2023-03-23T01:18:35;5.40;;;2.50;;
9712;SDS011;4895;50.926;6.870;2023-03-23T01:21:09;3.37;;;2.50;;
9712;SDS011;4895;50.926;6.870;2023-03-23T01:23:36;3.17;;;2.40;;
9712;SDS011;4895;50.926;6.870;2023-03-23T01:26:03;3.10;;;2.27;;
9712;SDS011;4895;50.926;6.870;2023-03-23T01:28:29;5.97;;;2.10;;
9712;SDS011;4895;50.926;6.870;2023-03-23T01:30:59;4.53;;;2.57;;
9712;SDS011;4895;50.926;6.870;2023-03-23T01:33:25;4.13;;;2.17;;
9712;SDS011;4895;50.926;6.870;2023-03-23T01:35:50;2.93;;;2.00;;
9712;SDS011;4895;50.926;6.870;2023-03-23T01:38:16;3.23;;;2.13;;
9712;SDS011;4895;50.926;6.870;2023-03-23T01:40:41;3.20;;;1.93;;
9712;SDS011;4895;50.926;6.870;2023-03-23T01:43:13;4.03;;;2.13;;
9712;SDS011;4895;50.926;6.870;2023-03-23T01:45:40;3.40;;;1.90;;
9712;SDS011;4895;50.926;6.870;2023-03-23T01:50:36;11.90;;;2.10;;
9712;SDS011;4895;50.926;6.870;2023-03-23T01:53:06;3.93;;;2.53;;
9712;SDS011;4895;50.926;6.870;2023-03-23T01:55:33;3.90;;;2.57;;
9712;SDS011;4895;50.926;6.870;2023-03-23T01:58:00;5.53;;;2.60;;
9712;SDS011;4895;50.926;6.870;2023-03-23T02:00:25;4.13;;;2.20;;
9712;SDS011;4895;50.926;6.870;2023-03-23T02:02:50;3.80;;;2.40;;
9712;SDS011;4895;50.926;6.870;2023-03-23T02:05:20;5.63;;;2.33;;
9712;SDS011;4895;50.926;6.870;2023-03-23T02:07:49;4.43;;;2.50;;
9712;SDS011;4895;50.926;6.870;2023-03-23T02:10:15;3.40;;;2.70;;
9712;SDS011;4895;50.926;6.870;2023-03-23T02:12:41;3.70;;;2.50;;
9712;SDS011;4895;50.926;6.870;2023-03-23T02:15:06;4.13;;;2.13;;
9712;SDS011;4895;50.926;6.870;2023-03-23T02:17:44;3.07;;;2.17;;
9712;SDS011;4895;50.926;6.870;2023-03-23T02:29:08;7.70;;;3.67;;
9712;SDS011;4895;50.926;6.870;2023-03-23T02:37:08;9.97;;;3.57;;
9712;SDS011;4895;50.926;6.870;2023-03-23T02:39:37;4.60;;;2.50;;
9712;SDS011;4895;50.926;6.870;2023-03-23T02:42:10;4.00;;;2.60;;
9712;SDS011;4895;50.926;6.870;2023-03-23T02:44:38;5.20;;;2.67;;
9712;SDS011;4895;50.926;6.870;2023-03-23T02:47:06;3.77;;;2.43;;
9712;SDS011;4895;50.926;6.870;2023-03-23T02:49:34;4.23;;;2.40;;
9712;SDS011;4895;50.926;6.870;2023-03-23T02:52:05;5.73;;;2.80;;
9712;SDS011;4895;50.926;6.870;2023-03-23T02:54:33;3.63;;;2.20;;
9712;SDS011;4895;50.926;6.870;2023-03-23T02:56:59;5.43;;;2.90;;
9712;SDS011;4895;50.926;6.870;2023-03-23T02:59:26;5.30;;;2.70;;
9712;SDS011;4895;50.926;6.870;2023-03-23T03:01:59;7.50;;;3.57;;
9712;SDS011;4895;50.926;6.870;2023-03-23T03:04:27;4.63;;;2.30;;
9712;SDS011;4895;50.926;6.870;2023-03-23T03:12:09;5.50;;;3.10;;
9712;SDS011;4895;50.926;6.870;2023-03-23T03:14:44;4.37;;;3.20;;
9712;SDS011;4895;50.926;6.870;2023-03-23T03:17:26;5.77;;;2.77;;
9712;SDS011;4895;50.926;6.870;2023-03-23T03:19:56;5.13;;;2.63;;
9712;SDS011;4895;50.926;6.870;2023-03-23T03:22:23;4.37;;;2.53;;
9712;SDS011;4895;50.926;6.870;2023-03-23T03:24:53;4.53;;;2.37;;
9712;SDS011;4895;50.926;6.870;2023-03-23T03:27:21;5.50;;;2.60;;
9712;SDS011;4895;50.926;6.870;2023-03-23T03:29:49;5.23;;;2.80;;
9712;SDS011;4895;50.926;6.870;2023-03-23T03:32:19;5.73;;;2.60;;
9712;SDS011;4895;50.926;6.870;2023-03-23T03:34:48;4.47;;;2.57;;
9712;SDS011;4895;50.926;6.870;2023-03-23T03:37:15;3.90;;;2.17;;
9712;SDS011;4895;50.926;6.870;2023-03-23T03:39:40;7.80;;;2.87;;
9712;SDS011;4895;50.926;6.870;2023-03-23T03:42:06;4.33;;;2.33;;
9712;SDS011;4895;50.926;6.870;2023-03-23T03:44:31;5.77;;;2.43;;
9712;SDS011;4895;50.926;6.870;2023-03-23T03:46:57;5.40;;;2.43;;
9712;SDS011;4895;50.926;6.870;2023-03-23T03:49:23;3.90;;;2.30;;
9712;SDS011;4895;50.926;6.870;2023-03-23T03:51:48;3.87;;;2.10;;
9712;SDS011;4895;50.926;6.870;2023-03-23T03:54:13;3.40;;;1.70;;
9712;SDS011;4895;50.926;6.870;2023-03-23T03:56:39;7.77;;;2.40;;
9712;SDS011;4895;50.926;6.870;2023-03-23T03:59:09;5.10;;;2.47;;
9712;SDS011;4895;50.926;6.870;2023-03-23T04:01:37;4.30;;;2.23;;
9712;SDS011;4895;50.926;6.870;2023-03-23T04:04:03;4.53;;;2.03;;
9712;SDS011;4895;50.926;6.870;2023-03-23T04:06:30;3.97;;;2.40;;
9712;SDS011;4895;50.926;6.870;2023-03-23T04:08:58;5.23;;;2.63;;
9712;SDS011;4895;50.926;6.870;2023-03-23T04:11:24;6.73;;;2.40;;
9712;SDS011;4895;50.926;6.870;2023-03-23T04:13:50;4.00;;;2.30;;
9712;SDS011;4895;50.926;6.870;2023-03-23T04:16:15;3.63;;;2.30;;
9712;SDS011;4895;50.926;6.870;2023-03-23T04:18:42;5.07;;;2.70;;
9712;SDS011;4895;50.926;6.870;2023-03-23T04:21:10;4.10;;;2.03;;
9712;SDS011;4895;50.926;6.870;2023-03-23T04:23:35;6.23;;;2.37;;
9712;SDS011;4895;50.926;6.870;2023-03-23T04:26:02;5.20;;;2.60;;
9712;SDS011;4895;50.926;6.870;2023-03-23T04:28:28;3.77;;;2.40;;
9712;SDS011;4895;50.926;6.870;2023-03-23T04:30:54;3.20;;;2.20;;
9712;SDS011;4895;50.926;6.870;2023-03-23T04:33:21;2.60;;;2.00;;
9712;SDS011;4895;50.926;6.870;2023-03-23T04:35:47;3.10;;;2.10;;
9712;SDS011;4895;50.926;6.870;2023-03-23T04:38:13;3.70;;;2.33;;
9712;SDS011;4895;50.926;6.870;2023-03-23T04:40:40;4.03;;;2.40;;
9712;SDS011;4895;50.926;6.870;2023-03-23T04:43:06;7.43;;;2.70;;
9712;SDS011;4895;50.926;6.870;2023-03-23T04:45:32;4.37;;;2.50;;
9712;SDS011;4895;50.926;6.870;2023-03-23T04:47:58;9.63;;;3.43;;
9712;SDS011;4895;50.926;6.870;2023-03-23T04:50:26;6.33;;;3.50;;
9712;SDS011;4895;50.926;6.870;2023-03-23T04:52:55;5.03;;;2.90;;
9712;SDS011;4895;50.926;6.870;2023-03-23T04:55:22;4.63;;;3.00;;
9712;SDS011;4895;50.926;6.870;2023-03-23T04:57:48;3.90;;;2.67;;
9712;SDS011;4895;50.926;6.870;2023-03-23T05:00:14;4.90;;;3.13;;
9712;SDS011;4895;50.926;6.870;2023-03-23T05:02:41;7.00;;;2.70;;
9712;SDS011;4895;50.926;6.870;2023-03-23T05:05:08;6.43;;;2.93;;
9712;SDS011;4895;50.926;6.870;2023-03-23T05:07:35;4.70;;;3.10;;
9712;SDS011;4895;50.926;6.870;2023-03-23T05:10:01;7.30;;;3.20;;
9712;SDS011;4895;50.926;6.870;2023-03-23T05:12:26;4.93;;;2.37;;
9712;SDS011;4895;50.926;6.870;2023-03-23T05:14:51;6.30;;;3.27;;
9712;SDS011;4895;50.926;6.870;2023-03-23T05:17:17;6.70;;;2.57;;
9712;SDS011;4895;50.926;6.870;2023-03-23T05:19:43;8.83;;;3.80;;
9712;SDS011;4895;50.926;6.870;2023-03-23T05:22:12;8.30;;;3.03;;
9712;SDS011;4895;50.926;6.870;2023-03-23T05:24:39;7.20;;;3.40;;
9712;SDS011;4895;50.926;6.870;2023-03-23T05:27:04;3.80;;;2.40;;
9712;SDS011;4895;50.926;6.870;2023-03-23T05:29:32;5.53;;;3.13;;
9712;SDS011;4895;50.926;6.870;2023-03-23T05:32:00;6.90;;;3.00;;
9712;SDS011;4895;50.926;6.870;2023-03-23T05:34:27;4.70;;;2.93;;
9712;SDS011;4895;50.926;6.870;2023-03-23T05:36:53;7.30;;;3.63;;
9712;SDS011;4895;50.926;6.870;2023-03-23T05:39:20;7.53;;;2.93;;
9712;SDS011;4895;50.926;6.870;2023-03-23T05:41:45;6.47;;;3.93;;
9712;SDS011;4895;50.926;6.870;2023-03-23T05:44:11;5.60;;;3.17;;
9712;SDS011;4895;50.926;6.870;2023-03-23T05:46:38;7.53;;;3.10;;
9712;SDS011;4895;50.926;6.870;2023-03-23T05:49:03;5.50;;;3.40;;
9712;SDS011;4895;50.926;6.870;2023-03-23T05:51:29;4.90;;;2.73;;
9712;SDS011;4895;50.926;6.870;2023-03-23T05:53:54;6.57;;;2.80;;
9712;SDS011;4895;50.926;6.870;2023-03-23T05:56:20;3.93;;;2.60;;
9712;SDS011;4895;50.926;6.870;2023-03-23T05:58:46;5.67;;;2.87;;
9712;SDS011;4895;50.926;6.870;2023-03-23T06:01:11;5.67;;;2.90;;
9712;SDS011;4895;50.926;6.870;2023-03-23T06:03:39;5.37;;;2.77;;
9712;SDS011;4895;50.926;6.870;2023-03-23T06:06:04;7.07;;;2.43;;
9712;SDS011;4895;50.926;6.870;2023-03-23T06:08:30;7.57;;;3.43;;
9712;SDS011;4895;50.926;6.870;2023-03-23T06:10:55;9.43;;;2.57;;
9712;SDS011;4895;50.926;6.870;2023-03-23T06:13:20;5.07;;;2.33;;
9712;SDS011;4895;50.926;6.870;2023-03-23T06:15:46;6.57;;;2.40;;
9712;SDS011;4895;50.926;6.870;2023-03-23T06:18:12;5.40;;;2.37;;
9712;SDS011;4895;50.926;6.870;2023-03-23T06:20:38;4.67;;;1.90;;
9712;SDS011;4895;50.926;6.870;2023-03-23T06:23:04;5.07;;;2.30;;
9712;SDS011;4895;50.926;6.870;2023-03-23T06:25:30;5.03;;;1.97;;
9712;SDS011;4895;50.926;6.870;2023-03-23T06:27:55;5.30;;;2.30;;
9712;SDS011;4895;50.926;6.870;2023-03-23T06:30:21;5.57;;;2.23;;
9712;SDS011;4895;50.926;6.870;2023-03-23T06:32:46;5.17;;;1.90;;
9712;SDS011;4895;50.926;6.870;2023-03-23T06:35:12;4.00;;;2.13;;
9712;SDS011;4895;50.926;6.870;2023-03-23T06:37:38;7.93;;;2.23;;
9712;SDS011;4895;50.926;6.870;2023-03-23T06:40:04;4.30;;;2.23;;
9712;SDS011;4895;50.926;6.870;2023-03-23T06:42:31;5.83;;;2.33;;
9712;SDS011;4895;50.926;6.870;2023-03-23T06:44:57;4.83;;;2.27;;
9712;SDS011;4895;50.926;6.870;2023-03-23T06:47:23;5.43;;;2.00;;
9712;SDS011;4895;50.926;6.870;2023-03-23T06:49:49;6.17;;;2.37;;
9712;SDS011;4895;50.926;6.870;2023-03-23T06:52:15;4.20;;;2.00;;
9712;SDS011;4895;50.926;6.870;2023-03-23T06:54:40;10.30;;;2.30;;
9712;SDS011;4895;50.926;6.870;2023-03-23T06:57:06;4.83;;;2.50;;
9712;SDS011;4895;50.926;6.870;2023-03-23T06:59:32;5.00;;;2.70;;
9712;SDS011;4895;50.926;6.870;2023-03-23T07:01:57;6.27;;;2.67;;
9712;SDS011;4895;50.926;6.870;2023-03-23T07:04:23;5.03;;;2.30;;
9712;SDS011;4895;50.926;6.870;2023-03-23T07:06:48;8.30;;;2.13;;
9712;SDS011;4895;50.926;6.870;2023-03-23T07:09:14;10.20;;;2.50;;
9712;SDS011;4895;50.926;6.870;2023-03-23T07:11:40;5.20;;;2.70;;
9712;SDS011;4895;50.926;6.870;2023-03-23T07:14:05;5.30;;;2.13;;
9712;SDS011;4895;50.926;6.870;2023-03-23T07:16:31;4.83;;;2.30;;
9712;SDS011;4895;50.926;6.870;2023-03-23T07:18:56;5.60;;;2.30;;
9712;SDS011;4895;50.926;6.870;2023-03-23T07:21:22;7.63;;;2.70;;
9712;SDS011;4895;50.926;6.870;2023-03-23T07:23:47;5.27;;;2.47;;
9712;SDS011;4895;50.926;6.870;2023-03-23T07:26:12;6.87;;;2.60;;
9712;SDS011;4895;50.926;6.870;2023-03-23T07:28:38;3.70;;;2.30;;
9712;SDS011;4895;50.926;6.870;2023-03-23T07:31:05;3.77;;;2.30;;
9712;SDS011;4895;50.926;6.870;2023-03-23T07:33:30;4.27;;;2.40;;
9712;SDS011;4895;50.926;6.870;2023-03-23T07:35:58;8.73;;;2.43;;
9712;SDS011;4895;50.926;6.870;2023-03-23T07:38:24;6.40;;;2.70;;
9712;SDS011;4895;50.926;6.870;2023-03-23T07:40:52;5.90;;;1.70;;
9712;SDS011;4895;50.926;6.870;2023-03-23T07:43:17;6.20;;;2.10;;
9712;SDS011;4895;50.926;6.870;2023-03-23T07:45:44;6.20;;;2.03;;
9712;SDS011;4895;50.926;6.870;2023-03-23T07:48:09;6.07;;;2.20;;
9712;SDS011;4895;50.926;6.870;2023-03-23T07:50:35;5.33;;;1.80;;
9712;SDS011;4895;50.926;6.870;2023-03-23T07:53:02;6.03;;;2.13;;
9712;SDS011;4895;50.926;6.870;2023-03-23T07:55:27;9.53;;;2.13;;
9712;SDS011;4895;50.926;6.870;2023-03-23T07:57:53;6.23;;;2.03;;
9712;SDS011;4895;50.926;6.870;2023-03-23T08:00:19;6.73;;;2.10;;
9712;SDS011;4895;50.926;6.870;2023-03-23T08:02:50;3.90;;;2.00;;
9712;SDS011;4895;50.926;6.870;2023-03-23T08:05:17;4.43;;;1.90;;
9712;SDS011;4895;50.926;6.870;2023-03-23T08:07:44;4.93;;;2.20;;
9712;SDS011;4895;50.926;6.870;2023-03-23T08:10:10;5.80;;;2.10;;
9712;SDS011;4895;50.926;6.870;2023-03-23T08:12:37;9.80;;;2.37;;
9712;SDS011;4895;50.926;6.870;2023-03-23T08:15:07;3.93;;;1.63;;
9712;SDS011;4895;50.926;6.870;2023-03-23T08:17:33;6.23;;;2.07;;
9712;SDS011;4895;50.926;6.870;2023-03-23T08:19:59;6.40;;;1.90;;
9712;SDS011;4895;50.926;6.870;2023-03-23T08:22:25;10.20;;;1.87;;
9712;SDS011;4895;50.926;6.870;2023-03-23T08:24:51;4.43;;;1.93;;
9712;SDS011;4895;50.926;6.870;2023-03-23T08:27:17;3.40;;;1.60;;
9712;SDS011;4895;50.926;6.870;2023-03-23T08:29:45;4.77;;;2.07;;
9712;SDS011;4895;50.926;6.870;2023-03-23T08:32:11;2.93;;;1.87;;
9712;SDS011;4895;50.926;6.870;2023-03-23T08:34:37;7.03;;;2.20;;
9712;SDS011;4895;50.926;6.870;2023-03-23T08:37:02;3.53;;;1.70;;
9712;SDS011;4895;50.926;6.870;2023-03-23T08:39:28;6.80;;;1.90;;
9712;SDS011;4895;50.926;6.870;2023-03-23T08:41:55;3.40;;;1.77;;
9712;SDS011;4895;50.926;6.870;2023-03-23T08:44:20;6.87;;;1.90;;
9712;SDS011;4895;50.926;6.870;2023-03-23T08:46:46;4.40;;;1.90;;
9712;SDS011;4895;50.926;6.870;2023-03-23T08:49:12;5.40;;;1.80;;
9712;SDS011;4895;50.926;6.870;2023-03-23T08:51:37;7.07;;;2.20;;
9712;SDS011;4895;50.926;6.870;2023-03-23T08:54:02;7.60;;;1.80;;
9712;SDS011;4895;50.926;6.870;2023-03-23T08:56:27;4.93;;;1.87;;
9712;SDS011;4895;50.926;6.870;2023-03-23T08:58:53;8.97;;;2.10;;
9712;SDS011;4895;50.926;6.870;2023-03-23T09:01:18;2.60;;;1.40;;
9712;SDS011;4895;50.926;6.870;2023-03-23T09:03:44;7.07;;;1.90;;
9712;SDS011;4895;50.926;6.870;2023-03-23T09:06:10;2.93;;;1.50;;
9712;SDS011;4895;50.926;6.870;2023-03-23T09:08:37;4.87;;;1.70;;
9712;SDS011;4895;50.926;6.870;2023-03-23T09:11:03;4.93;;;2.17;;
9712;SDS011;4895;50.926;6.870;2023-03-23T09:13:34;5.23;;;1.63;;
9712;SDS011;4895;50.926;6.870;2023-03-23T09:15:59;7.60;;;2.00;;
9712;SDS011;4895;50.926;6.870;2023-03-23T09:18:25;3.47;;;1.83;;
9712;SDS011;4895;50.926;6.870;2023-03-23T09:20:51;4.07;;;1.43;;
9712;SDS011;4895;50.926;6.870;2023-03-23T09:23:17;3.17;;;1.57;;
9712;SDS011;4895;50.926;6.870;2023-03-23T09:25:42;3.37;;;1.67;;
9712;SDS011;4895;50.926;6.870;2023-03-23T09:28:08;6.90;;;2.30;;
9712;SDS011;4895;50.926;6.870;2023-03-23T09:30:34;8.73;;;1.87;;
9712;SDS011;4895;50.926;6.870;2023-03-23T09:33:01;2.87;;;1.70;;
9712;SDS011;4895;50.926;6.870;2023-03-23T09:35:28;6.67;;;2.23;;
9712;SDS011;4895;50.926;6.870;2023-03-23T09:37:56;7.60;;;1.90;;
9712;SDS011;4895;50.926;6.870;2023-03-23T09:40:25;3.30;;;1.70;;
9712;SDS011;4895;50.926;6.870;2023-03-23T09:42:57;7.67;;;2.00;;
9712;SDS011;4895;50.926;6.870;2023-03-23T09:54:29;8.60;;;2.33;;
9712;SDS011;4895;50.926;6.870;2023-03-23T09:56:57;5.70;;;1.70;;
9712;SDS011;4895;50.926;6.870;2023-03-23T09:59:26;9.27;;;1.97;;
9712;SDS011;4895;50.926;6.870;2023-03-23T10:01:57;7.80;;;2.00;;
9712;SDS011;4895;50.926;6.870;2023-03-23T10:04:36;9.83;;;1.77;;
9712;SDS011;4895;50.926;6.870;2023-03-23T10:07:14;6.30;;;1.67;;
9712;SDS011;4895;50.926;6.870;2023-03-23T10:09:42;2.73;;;1.37;;
9712;SDS011;4895;50.926;6.870;2023-03-23T10:22:40;8.20;;;1.83;;
9712;SDS011;4895;50.926;6.870;2023-03-23T10:30:40;4.17;;;1.60;;
9712;SDS011;4895;50.926;6.870;2023-03-23T10:33:28;6.20;;;1.73;;
9712;SDS011;4895;50.926;6.870;2023-03-23T10:36:00;3.00;;;1.63;;
9712;SDS011;4895;50.926;6.870;2023-03-23T10:38:29;3.53;;;1.50;;
9712;SDS011;4895;50.926;6.870;2023-03-23T10:41:14;5.83;;;1.50;;
9712;SDS011;4895;50.926;6.870;2023-03-23T10:43:43;4.23;;;1.30;;
9712;SDS011;4895;50.926;6.870;2023-03-23T10:46:13;1.60;;;1.10;;
9712;SDS011;4895;50.926;6.870;2023-03-23T10:48:45;3.10;;;1.33;;
9712;SDS011;4895;50.926;6.870;2023-03-23T10:51:13;4.93;;;1.13;;
9712;SDS011;4895;50.926;6.870;2023-03-23T10:53:45;2.60;;;1.07;;
9712;SDS011;4895;50.926;6.870;2023-03-23T10:56:25;3.53;;;1.27;;
9712;SDS011;4895;50.926;6.870;2023-03-23T10:58:54;5.87;;;1.47;;
9712;SDS011;4895;50.926;6.870;2023-03-23T11:01:28;3.17;;;1.23;;
9712;SDS011;4895;50.926;6.870;2023-03-23T11:03:55;8.53;;;1.50;;
9712;SDS011;4895;50.926;6.870;2023-03-23T11:06:26;2.70;;;1.10;;
9712;SDS011;4895;50.926;6.870;2023-03-23T11:09:10;2.83;;;1.10;;
9712;SDS011;4895;50.926;6.870;2023-03-23T11:11:38;2.60;;;1.20;;
9712;SDS011;4895;50.926;6.870;2023-03-23T11:16:57;3.03;;;1.33;;
9712;SDS011;4895;50.926;6.870;2023-03-23T11:19:26;3.50;;;1.20;;
9712;SDS011;4895;50.926;6.870;2023-03-23T11:21:52;3.70;;;1.27;;
9712;SDS011;4895;50.926;6.870;2023-03-23T11:24:26;4.03;;;1.20;;
9712;SDS011;4895;50.926;6.870;2023-03-23T11:26:52;5.77;;;1.20;;
9712;SDS011;4895;50.926;6.870;2023-03-23T11:29:22;2.60;;;1.33;;
9712;SDS011;4895;50.926;6.870;2023-03-23T11:31:54;1.57;;;1.13;;
9712;SDS011;4895;50.926;6.870;2023-03-23T11:39:58;7.60;;;1.10;;
9712;SDS011;4895;50.926;6.870;2023-03-23T11:42:25;3.70;;;1.20;;
9712;SDS011;4895;50.926;6.870;2023-03-23T11:44:53;2.27;;;1.20;;
9712;SDS011;4895;50.926;6.870;2023-03-23T11:47:24;4.00;;;1.13;;
9712;SDS011;4895;50.926;6.870;2023-03-23T11:55:11;1.93;;;0.90;;
9712;SDS011;4895;50.926;6.870;2023-03-23T11:57:40;1.63;;;0.90;;
9712;SDS011;4895;50.926;6.870;2023-03-23T12:00:20;2.00;;;1.00;;
9712;SDS011;4895;50.926;6.870;2023-03-23T12:05:50;2.40;;;1.20;;
9712;SDS011;4895;50.926;6.870;2023-03-23T12:11:23;3.37;;;1.33;;
9712;SDS011;4895;50.926;6.870;2023-03-23T12:13:56;2.93;;;1.00;;
9712;SDS011;4895;50.926;6.870;2023-03-23T12:16:50;2.27;;;1.00;;
9712;SDS011;4895;50.926;6.870;2023-03-23T12:36:15;4.30;;;1.43;;
9712;SDS011;4895;50.926;6.870;2023-03-23T12:45:19;3.40;;;1.90;;
9712;SDS011;4895;50.926;6.870;2023-03-23T12:48:02;3.43;;;1.63;;
9712;SDS011;4895;50.926;6.870;2023-03-23T12:50:32;2.73;;;1.33;;
9712;SDS011;4895;50.926;6.870;2023-03-23T12:55:50;3.50;;;1.50;;
9712;SDS011;4895;50.926;6.870;2023-03-23T12:58:28;3.93;;;1.50;;
9712;SDS011;4895;50.926;6.870;2023-03-23T13:01:07;7.03;;;2.00;;
9712;SDS011;4895;50.926;6.870;2023-03-23T13:03:48;3.30;;;1.23;;
9712;SDS011;4895;50.926;6.870;2023-03-23T13:06:20;3.10;;;1.57;;
9712;SDS011;4895;50.926;6.870;2023-03-23T13:08:48;5.50;;;1.80;;
9712;SDS011;4895;50.926;6.870;2023-03-23T13:11:24;5.43;;;1.93;;
9712;SDS011;4895;50.926;6.870;2023-03-23T13:14:03;5.73;;;1.80;;
9712;SDS011;4895;50.926;6.870;2023-03-23T13:16:49;4.87;;;1.90;;
9712;SDS011;4895;50.926;6.870;2023-03-23T13:19:30;3.10;;;1.20;;
9712;SDS011;4895;50.926;6.870;2023-03-23T13:24:43;4.00;;;2.03;;
9712;SDS011;4895;50.926;6.870;2023-03-23T13:27:14;3.10;;;1.50;;
9712;SDS011;4895;50.926;6.870;2023-03-23T13:29:44;4.03;;;1.30;;
9712;SDS011;4895;50.926;6.870;2023-03-23T13:32:12;3.13;;;1.47;;
9712;SDS011;4895;50.926;6.870;2023-03-23T13:34:41;2.20;;;1.17;;
9712;SDS011;4895;50.926;6.870;2023-03-23T13:37:10;5.80;;;1.63;;
9712;SDS011;4895;50.926;6.870;2023-03-23T13:39:53;3.50;;;1.20;;
9712;SDS011;4895;50.926;6.870;2023-03-23T13:42:25;5.40;;;1.27;;
9712;SDS011;4895;50.926;6.870;2023-03-23T13:52:38;10.33;;;1.87;;
9712;SDS011;4895;50.926;6.870;2023-03-23T13:57:57;4.47;;;1.70;;
9712;SDS011;4895;50.926;6.870;2023-03-23T14:00:45;7.70;;;1.80;;
9712;SDS011;4895;50.926;6.870;2023-03-23T14:03:13;6.27;;;1.90;;
9712;SDS011;4895;50.926;6.870;2023-03-23T14:08:23;6.67;;;2.03;;
9712;SDS011;4895;50.926;6.870;2023-03-23T14:10:57;7.20;;;2.03;;
9712;SDS011;4895;50.926;6.870;2023-03-23T14:13:31;4.50;;;1.60;;
9712;SDS011;4895;50.926;6.870;2023-03-23T14:16:00;7.53;;;2.00;;
9712;SDS011;4895;50.926;6.870;2023-03-23T14:18:38;5.67;;;1.77;;
9712;SDS011;4895;50.926;6.870;2023-03-23T14:21:05;4.50;;;1.93;;
9712;SDS011;4895;50.926;6.870;2023-03-23T14:23:34;6.90;;;1.50;;
9712;SDS011;4895;50.926;6.870;2023-03-23T14:26:05;4.93;;;1.80;;
9712;SDS011;4895;50.926;6.870;2023-03-23T14:28:40;4.43;;;1.80;;
9712;SDS011;4895;50.926;6.870;2023-03-23T14:31:14;4.77;;;1.90;;
9712;SDS011;4895;50.926;6.870;2023-03-23T14:33:41;6.33;;;1.90;;
9712;SDS011;4895;50.926;6.870;2023-03-23T14:36:06;4.47;;;1.60;;
9712;SDS011;4895;50.926;6.870;2023-03-23T14:38:32;4.10;;;1.50;;
9712;SDS011;4895;50.926;6.870;2023-03-23T14:41:04;4.10;;;1.70;;
9712;SDS011;4895;50.926;6.870;2023-03-23T14:43:30;9.17;;;2.60;;
9712;SDS011;4895;50.926;6.870;2023-03-23T14:45:59;6.03;;;2.10;;
9712;SDS011;4895;50.926;6.870;2023-03-23T14:48:26;5.33;;;2.13;;
9712;SDS011;4895;50.926;6.870;2023-03-23T14:50:52;10.07;;;1.97;;
9712;SDS011;4895;50.926;6.870;2023-03-23T14:53:22;5.13;;;1.97;;
9712;SDS011;4895;50.926;6.870;2023-03-23T14:56:03;3.50;;;1.40;;
9712;SDS011;4895;50.926;6.870;2023-03-23T14:58:35;7.77;;;1.83;;
9712;SDS011;4895;50.926;6.870;2023-03-23T15:01:02;7.13;;;1.80;;
9712;SDS011;4895;50.926;6.870;2023-03-23T15:03:33;6.03;;;1.60;;
9712;SDS011;4895;50.926;6.870;2023-03-23T15:06:01;7.27;;;1.73;;
9712;SDS011;4895;50.926;6.870;2023-03-23T15:08:31;4.43;;;1.60;;
9712;SDS011;4895;50.926;6.870;2023-03-23T15:11:40;6.53;;;1.67;;
9712;SDS011;4895;50.926;6.870;2023-03-23T15:13:54;6.73;;;1.70;;
9712;SDS011;4895;50.926;6.870;2023-03-23T15:16:23;4.87;;;1.90;;
9712;SDS011;4895;50.926;6.870;2023-03-23T15:18:51;4.40;;;1.70;;
9712;SDS011;4895;50.926;6.870;2023-03-23T15:23:55;3.37;;;1.80;;
9712;SDS011;4895;50.926;6.870;2023-03-23T15:26:26;5.20;;;1.70;;
9712;SDS011;4895;50.926;6.870;2023-03-23T15:29:10;4.40;;;1.70;;
9712;SDS011;4895;50.926;6.870;2023-03-23T15:31:39;7.10;;;1.77;;
9712;SDS011;4895;50.926;6.870;2023-03-23T15:34:05;8.30;;;1.70;;
9712;SDS011;4895;50.926;6.870;2023-03-23T15:36:33;5.87;;;1.73;;
9712;SDS011;4895;50.926;6.870;2023-03-23T15:39:00;4.90;;;2.43;;
9712;SDS011;4895;50.926;6.870;2023-03-23T15:41:27;6.27;;;2.40;;
9712;SDS011;4895;50.926;6.870;2023-03-23T15:43:55;4.83;;;2.17;;
9712;SDS011;4895;50.926;6.870;2023-03-23T15:46:24;6.97;;;2.10;;
9712;SDS011;4895;50.926;6.870;2023-03-23T15:51:19;10.23;;;2.67;;
9712;SDS011;4895;50.926;6.870;2023-03-23T15:53:46;4.53;;;2.00;;
9712;SDS011;4895;50.926;6.870;2023-03-23T15:56:12;6.00;;;2.43;;
9712;SDS011;4895;50.926;6.870;2023-03-23T15:58:38;6.30;;;2.23;;
9712;SDS011;4895;50.926;6.870;2023-03-23T16:01:06;5.50;;;2.17;;
9712;SDS011;4895;50.926;6.870;2023-03-23T16:03:38;7.10;;;2.27;;
9712;SDS011;4895;50.926;6.870;2023-03-23T16:06:08;6.60;;;2.57;;
9712;SDS011;4895;50.926;6.870;2023-03-23T16:08:35;6.23;;;2.40;;
9712;SDS011;4895;50.926;6.870;2023-03-23T16:11:04;5.07;;;1.93;;
9712;SDS011;4895;50.926;6.870;2023-03-23T16:13:30;7.90;;;2.70;;
9712;SDS011;4895;50.926;6.870;2023-03-23T16:15:56;7.10;;;2.30;;
9712;SDS011;4895;50.926;6.870;2023-03-23T16:18:21;9.30;;;2.20;;
9712;SDS011;4895;50.926;6.870;2023-03-23T16:20:47;10.40;;;2.60;;
9712;SDS011;4895;50.926;6.870;2023-03-23T16:23:13;7.93;;;2.00;;
9712;SDS011;4895;50.926;6.870;2023-03-23T16:25:39;5.53;;;2.20;;
9712;SDS011;4895;50.926;6.870;2023-03-23T16:28:04;7.90;;;2.77;;
9712;SDS011;4895;50.926;6.870;2023-03-23T16:30:31;8.50;;;2.80;;
9712;SDS011;4895;50.926;6.870;2023-03-23T16:32:57;9.20;;;2.57;;
9712;SDS011;4895;50.926;6.870;2023-03-23T16:35:23;9.23;;;2.20;;
9712;SDS011;4895;50.926;6.870;2023-03-23T16:37:50;7.60;;;2.90;;
9712;SDS011;4895;50.926;6.870;2023-03-23T16:40:18;9.17;;;2.40;;
9712;SDS011;4895;50.926;6.870;2023-03-23T16:42:43;4.97;;;2.10;;
9712;SDS011;4895;50.926;6.870;2023-03-23T16:45:09;6.43;;;2.27;;
9712;SDS011;4895;50.926;6.870;2023-03-23T16:47:35;6.63;;;2.03;;
9712;SDS011;4895;50.926;6.870;2023-03-23T16:50:01;10.63;;;2.60;;
9712;SDS011;4895;50.926;6.870;2023-03-23T16:52:26;7.80;;;2.60;;
9712;SDS011;4895;50.926;6.870;2023-03-23T16:54:52;5.80;;;2.27;;
9712;SDS011;4895;50.926;6.870;2023-03-23T16:57:17;8.53;;;2.33;;
9712;SDS011;4895;50.926;6.870;2023-03-23T16:59:43;7.07;;;2.63;;
9712;SDS011;4895;50.926;6.870;2023-03-23T17:02:09;8.90;;;2.20;;
9712;SDS011;4895;50.926;6.870;2023-03-23T17:04:35;6.00;;;2.50;;
9712;SDS011;4895;50.926;6.870;2023-03-23T17:07:02;8.07;;;3.00;;
9712;SDS011;4895;50.926;6.870;2023-03-23T17:09:27;10.07;;;3.37;;
9712;SDS011;4895;50.926;6.870;2023-03-23T17:11:53;8.03;;;3.30;;
9712;SDS011;4895;50.926;6.870;2023-03-23T17:14:19;10.60;;;2.67;;
9712;SDS011;4895;50.926;6.870;2023-03-23T17:16:45;7.63;;;2.60;;